Time;durP1;ratioP1;P1;durP2;ratioP2;P2;SDS_P1;SDS_P2;PMS_P1;PMS_P2;Temp;Humidity;BMP_temperature;BMP_pressure;BME280_temperature;BME280_humidity;BME280_pressure;Samples;Min_cycle;Max_cycle;Signal;HPM_P1;HPM_P2
2022/07/02 00:00:26;;;;;;;3.78;2.15;;;;;;;11.55;90.22;101997.88;2096241;28;29980;-63
2022/07/02 00:01:30;;;;;;;4.57;2.45;;;;;;;11.56;90.17;101997.88;2095811;28;24074;-63
2022/07/02 00:02:36;;;;;;;7.38;2.90;;;;;;;11.52;90.24;101995.22;2096259;28;30483;-63
2022/07/02 00:03:43;;;;;;;3.00;1.70;;;;;;;11.49;90.34;102000.63;2096957;28;22573;-63
2022/07/02 00:04:58;;;;;;;3.83;2.58;;;;;;;11.49;90.94;102000.63;2095955;28;20037;-63
2022/07/02 00:06:02;;;;;;;5.00;2.67;;;;;;;11.50;91.35;101994.34;2096345;28;24826;-63
2022/07/02 00:07:04;;;;;;;4.30;2.97;;;;;;;11.44;90.64;101992.63;2096046;28;20037;-63
2022/07/02 00:08:08;;;;;;;4.65;2.60;;;;;;;11.40;90.89;101991.78;2095912;28;20963;-63
2022/07/02 00:09:12;;;;;;;3.75;2.72;;;;;;;11.36;90.44;101998.06;2095235;28;38045;-63
2022/07/02 00:10:14;;;;;;;3.88;2.55;;;;;;;11.34;91.03;101994.53;2095883;28;20049;-63
2022/07/02 00:11:19;;;;;;;6.50;2.75;;;;;;;11.33;90.99;101999.88;2095569;28;36387;-63
2022/07/02 00:12:27;;;;;;;4.75;2.72;;;;;;;11.31;91.26;101993.66;2094833;28;20041;-63
2022/07/02 00:13:29;;;;;;;2.95;2.15;;;;;;;11.30;91.37;101999.91;2096139;28;26735;-63
2022/07/02 00:14:33;;;;;;;5.13;2.55;;;;;;;11.28;90.98;101997.25;2095824;28;27799;-63
2022/07/02 00:15:35;;;;;;;5.40;2.50;;;;;;;11.27;91.62;102006.22;2096843;28;20183;-62
2022/07/02 00:16:44;;;;;;;4.47;2.83;;;;;;;11.27;91.76;102000.84;2096135;28;24847;-63
2022/07/02 00:17:49;;;;;;;6.43;3.40;;;;;;;11.30;92.36;102003.47;2094534;28;34029;-62
2022/07/02 00:18:51;;;;;;;5.63;3.17;;;;;;;11.35;92.49;102003.44;2095416;28;38435;-62
2022/07/02 00:19:56;;;;;;;4.70;3.03;;;;;;;11.35;92.46;101998.97;2095864;28;20906;-62
2022/07/02 00:20:58;;;;;;;6.68;3.33;;;;;;;11.40;92.98;102006.97;2095982;28;20041;-63
2022/07/02 00:22:01;;;;;;;4.28;3.30;;;;;;;11.46;92.72;101993.50;2095474;28;30266;-63
2022/07/02 00:23:03;;;;;;;7.45;3.10;;;;;;;11.42;92.16;101995.31;2087398;28;21010;-62
2022/07/02 00:24:07;;;;;;;4.53;3.53;;;;;;;11.49;92.55;101989.91;2088379;28;20034;-62
2022/07/02 00:25:09;;;;;;;4.80;2.92;;;;;;;11.47;91.64;101992.59;2095736;28;21341;-63
2022/07/02 00:26:39;;;;;;;3.90;3.50;;;;;;;11.52;91.41;101992.53;2096249;28;20110;-63
2022/07/02 00:27:43;;;;;;;7.20;3.13;;;;;;;11.55;91.31;101995.19;2098095;28;21156;-63
2022/07/02 00:28:53;;;;;;;4.85;2.88;;;;;;;11.51;91.05;101990.78;2098187;28;20033;-63
2022/07/02 00:30:00;;;;;;;5.70;3.60;;;;;;;11.53;91.22;101988.97;2088355;28;21000;-64
2022/07/02 00:31:02;;;;;;;6.55;3.67;;;;;;;11.54;91.07;101988.97;2090861;28;21072;-63
2022/07/02 00:32:05;;;;;;;5.07;3.50;;;;;;;11.62;90.47;101994.25;2097737;28;23432;-63
2022/07/02 00:33:16;;;;;;;5.95;3.65;;;;;;;11.57;90.39;101994.28;2097367;28;38322;-63
2022/07/02 00:34:18;;;;;;;5.78;3.67;;;;;;;11.57;90.11;101993.38;2098340;28;21607;-63
2022/07/02 00:35:21;;;;;;;7.53;3.13;;;;;;;11.53;90.00;101999.69;2096688;28;24988;-63
2022/07/02 00:36:25;;;;;;;4.47;3.22;;;;;;;11.49;90.16;101996.16;2088944;28;27927;-63
2022/07/02 00:37:27;;;;;;;6.63;3.40;;;;;;;11.48;90.54;101993.47;2097509;28;24495;-63
2022/07/02 00:38:30;;;;;;;3.92;3.35;;;;;;;11.51;90.67;101999.72;2105594;28;20093;-63
2022/07/02 00:39:35;;;;;;;5.18;2.72;;;;;;;11.49;90.49;102000.63;2105566;28;20117;-64
2022/07/02 00:40:38;;;;;;;5.03;3.30;;;;;;;11.43;90.32;101994.44;2097225;28;25109;-63
2022/07/02 00:41:44;;;;;;;3.92;3.53;;;;;;;11.42;90.85;101989.97;2089306;28;26414;-63
2022/07/02 00:42:49;;;;;;;3.83;3.20;;;;;;;11.41;90.32;101995.31;2089425;28;20045;-63
2022/07/02 00:43:52;;;;;;;4.03;3.40;;;;;;;11.36;90.51;101999.84;2081437;28;23650;-63
2022/07/02 00:44:55;;;;;;;8.05;3.85;;;;;;;11.34;90.43;101997.19;2083646;28;20034;-63
2022/07/02 00:46:00;;;;;;;6.80;3.58;;;;;;;11.31;90.99;101994.53;2088916;28;37851;-63
2022/07/02 00:47:08;;;;;;;7.28;3.40;;;;;;;11.29;90.65;101999.03;2089992;28;22504;-63
2022/07/02 00:48:13;;;;;;;4.05;3.25;;;;;;;11.28;90.80;101997.25;2097115;28;22134;-63
2022/07/02 00:49:17;;;;;;;7.63;3.80;;;;;;;11.28;91.42;101991.88;2096945;28;24194;-63
2022/07/02 00:50:21;;;;;;;5.03;3.83;;;;;;;11.29;91.47;101993.66;2089565;28;20045;-63
2022/07/02 00:51:23;;;;;;;6.43;3.97;;;;;;;11.29;91.81;101996.34;2089270;28;20041;-63
2022/07/02 00:52:25;;;;;;;4.70;3.67;;;;;;;11.29;91.88;101996.34;2096983;28;20087;-63
2022/07/02 00:53:27;;;;;;;7.25;3.80;;;;;;;11.32;92.20;101998.97;2097870;28;28222;-63
2022/07/02 00:54:29;;;;;;;7.22;4.20;;;;;;;11.33;91.69;101990.03;2097165;28;37181;-63
2022/07/02 00:55:31;;;;;;;6.60;4.03;;;;;;;11.33;91.35;101999.88;2097106;28;22178;-63
2022/07/02 00:56:33;;;;;;;6.47;4.18;;;;;;;11.34;91.81;101997.19;2097193;28;22166;-63
2022/07/02 00:57:35;;;;;;;5.90;4.03;;;;;;;11.38;91.95;101987.34;2097301;28;23237;-63
2022/07/02 00:58:37;;;;;;;4.10;3.72;;;;;;;11.31;91.28;101985.63;2096330;28;39753;-63
2022/07/02 00:59:43;;;;;;;5.50;3.08;;;;;;;11.29;91.17;101988.31;2096766;28;34951;-63
2022/07/02 01:00:44;;;;;;;4.82;3.10;;;;;;;11.29;90.47;101993.66;2096253;28;35580;-63
2022/07/02 01:01:50;;;;;;;4.40;3.70;;;;;;;11.28;90.99;101986.50;2097644;28;21903;-63
2022/07/02 01:02:55;;;;;;;4.60;3.55;;;;;;;11.24;90.64;101990.13;2098050;28;20033;-63
2022/07/02 01:04:01;;;;;;;4.45;3.28;;;;;;;11.24;90.68;101992.81;2096593;28;37800;-63
2022/07/02 01:05:03;;;;;;;5.70;2.95;;;;;;;11.21;90.50;101984.78;2097361;28;21634;-63
2022/07/02 01:06:05;;;;;;;8.07;3.55;;;;;;;11.21;91.29;101984.78;2097816;28;20364;-63
2022/07/02 01:07:12;;;;;;;4.80;3.78;;;;;;;11.18;90.86;101984.81;2096866;28;23840;-63
2022/07/02 01:11:04;;;;;;;5.28;3.25;;;;;;;11.10;91.27;101981.31;2097419;28;20088;-62
2022/07/02 01:12:07;;;;;;;4.65;4.22;;;;;;;11.07;91.47;101979.53;2096300;28;39040;-62
2022/07/02 01:13:11;;;;;;;6.28;4.50;;;;;;;11.08;92.53;101968.81;2088580;28;33935;-63
2022/07/02 01:14:20;;;;;;;6.63;4.70;;;;;;;11.12;92.80;101976.84;2089689;28;20030;-63
2022/07/02 01:15:22;;;;;;;5.20;4.10;;;;;;;11.05;92.21;101979.59;2089462;28;22591;-62
2022/07/02 01:16:24;;;;;;;4.60;4.20;;;;;;;11.01;92.56;101976.94;2097680;28;20883;-65
2022/07/02 01:17:26;;;;;;;5.05;3.72;;;;;;;11.01;92.48;101976.94;2096987;28;38811;-65
2022/07/02 01:18:28;;;;;;;6.43;4.22;;;;;;;10.98;92.69;101977.84;2097620;28;30611;-63
2022/07/02 01:19:31;;;;;;;4.57;4.18;;;;;;;10.99;93.03;101984.97;2097660;28;20037;-64
2022/07/02 01:20:33;;;;;;;7.15;4.70;;;;;;;10.96;92.80;101979.63;2096573;28;30087;-64
2022/07/02 01:21:37;;;;;;;4.40;3.72;;;;;;;10.94;92.80;101976.06;2096310;28;33511;-63
2022/07/02 01:22:41;;;;;;;3.88;3.67;;;;;;;10.92;92.82;101988.59;2088965;28;28689;-65
2022/07/02 01:23:45;;;;;;;6.57;4.00;;;;;;;10.89;92.82;101984.16;2089173;28;22802;-63
2022/07/02 01:24:51;;;;;;;5.85;4.20;;;;;;;10.86;92.83;101984.19;2096903;28;24059;-63
2022/07/02 01:25:53;;;;;;;6.47;4.35;;;;;;;10.84;92.89;101985.09;2096973;28;20151;-64
2022/07/02 01:26:55;;;;;;;4.43;4.03;;;;;;;10.82;92.68;101986.88;2096437;28;33101;-65
2022/07/02 01:27:59;;;;;;;5.30;4.30;;;;;;;10.81;92.96;101986.00;2097370;28;25528;-63
2022/07/02 01:29:05;;;;;;;7.00;4.43;;;;;;;10.78;93.16;101986.00;2097369;28;20702;-64
2022/07/02 01:30:08;;;;;;;7.13;4.13;;;;;;;10.78;92.59;101990.50;2097426;28;29203;-62
2022/07/02 01:31:10;;;;;;;4.65;4.20;;;;;;;10.75;92.48;101987.81;2096966;28;20037;-63
2022/07/02 01:32:15;;;;;;;8.18;4.35;;;;;;;10.77;93.49;101994.09;2096369;28;41606;-62
2022/07/02 01:33:17;;;;;;;5.93;4.63;;;;;;;10.76;93.22;101993.16;2096862;28;23333;-63
2022/07/02 01:34:19;;;;;;;5.97;4.53;;;;;;;10.74;92.97;101994.09;2097723;28;20045;-63
2022/07/02 01:35:20;;;;;;;9.00;4.68;;;;;;;10.69;92.80;101995.03;2097314;28;21956;-63
2022/07/02 01:36:22;;;;;;;7.45;4.75;;;;;;;10.72;93.45;101998.56;2096481;28;21320;-62
2022/07/02 01:37:24;;;;;;;8.63;4.72;;;;;;;10.70;93.51;101996.78;2096486;28;29506;-63
2022/07/02 01:38:26;;;;;;;6.30;4.68;;;;;;;10.66;93.55;101997.72;2096312;28;20115;-63
2022/07/02 01:39:29;;;;;;;6.50;4.50;;;;;;;10.63;93.93;101994.16;2096658;28;21667;-62
2022/07/02 01:40:32;;;;;;;4.80;4.15;;;;;;;10.60;93.49;101989.69;2096554;28;21636;-62
2022/07/02 01:41:39;;;;;;;5.05;4.55;;;;;;;10.59;94.10;101985.25;2097346;28;24467;-63
2022/07/02 01:42:41;;;;;;;5.30;4.40;;;;;;;10.59;94.01;101987.06;2097838;28;30114;-62
2022/07/02 01:43:43;;;;;;;7.72;5.43;;;;;;;10.57;94.08;101983.47;2097658;28;21637;-63
2022/07/02 01:44:46;;;;;;;5.97;4.60;;;;;;;10.52;94.00;101993.34;2097563;28;20044;-64
2022/07/02 01:45:47;;;;;;;6.00;5.30;;;;;;;10.48;94.19;101988.00;2097349;28;34160;-64
2022/07/02 01:46:50;;;;;;;7.38;4.88;;;;;;;10.48;94.60;101993.34;2097604;28;20056;-64
2022/07/02 01:47:55;;;;;;;5.80;5.30;;;;;;;10.45;94.32;101997.84;2097157;28;37108;-65
2022/07/02 01:48:56;;;;;;;6.15;5.65;;;;;;;10.44;94.43;101986.22;2096217;28;26974;-62
2022/07/02 01:49:58;;;;;;;6.20;4.70;;;;;;;10.43;95.05;101989.81;2097494;28;23132;-64
2022/07/02 01:51:00;;;;;;;6.10;4.75;;;;;;;10.44;94.91;101988.00;2097481;28;20736;-64
2022/07/02 01:52:03;;;;;;;6.35;5.78;;;;;;;10.43;94.80;101988.94;2097610;28;20041;-64
2022/07/02 01:53:05;;;;;;;5.85;5.22;;;;;;;10.41;94.29;101990.69;2096842;28;28805;-64
2022/07/02 01:54:09;;;;;;;6.78;5.03;;;;;;;10.41;94.74;101990.69;2096379;28;26460;-64
2022/07/02 01:55:11;;;;;;;5.95;5.32;;;;;;;10.39;94.53;101997.84;2096501;28;20114;-64
2022/07/02 01:56:13;;;;;;;7.38;5.15;;;;;;;10.38;95.21;101998.78;2097015;28;33577;-62
2022/07/02 01:57:18;;;;;;;6.90;5.75;;;;;;;10.32;94.66;101999.69;2097131;28;20695;-63
2022/07/02 01:58:20;;;;;;;6.15;4.93;;;;;;;10.34;95.00;101992.53;2097491;28;20044;-63
2022/07/02 01:59:22;;;;;;;7.78;5.93;;;;;;;10.42;96.52;102003.19;2096354;28;32105;-63
2022/07/02 02:00:26;;;;;;;7.28;6.07;;;;;;;10.37;95.44;102002.34;2096854;28;20037;-63
2022/07/02 02:01:28;;;;;;;5.47;4.97;;;;;;;10.39;95.53;101995.19;2096410;28;21383;-63
2022/07/02 02:02:32;;;;;;;7.18;5.22;;;;;;;10.35;95.73;101996.09;2096822;28;20199;-63
2022/07/02 02:03:34;;;;;;;8.23;5.45;;;;;;;10.32;94.99;102000.56;2096908;28;20949;-62
2022/07/02 02:04:36;;;;;;;6.88;6.18;;;;;;;10.32;95.74;101991.66;2096060;28;37506;-63
2022/07/02 02:05:38;;;;;;;6.50;5.82;;;;;;;10.28;95.68;101990.75;2097405;28;24408;-63
2022/07/02 02:06:41;;;;;;;6.63;5.95;;;;;;;10.29;95.37;101989.84;2097619;28;20151;-62
2022/07/02 02:07:45;;;;;;;7.22;6.53;;;;;;;10.30;96.31;101986.28;2097296;28;27562;-63
2022/07/02 02:08:48;;;;;;;8.20;5.88;;;;;;;10.27;95.90;101988.97;2097480;28;20041;-63
2022/07/02 02:09:53;;;;;;;7.18;5.85;;;;;;;10.26;96.27;101986.28;2096589;28;20713;-63
2022/07/02 02:10:55;;;;;;;10.95;6.43;;;;;;;10.29;96.96;101984.50;2097662;28;22988;-62
2022/07/02 02:11:58;;;;;;;10.95;6.85;;;;;;;10.30;96.36;101983.59;2096499;28;23386;-63
2022/07/02 02:13:00;;;;;;;9.40;6.70;;;;;;;10.32;96.74;101987.19;2096174;28;36010;-63
2022/07/02 02:14:06;;;;;;;7.80;6.55;;;;;;;10.35;97.15;101985.38;2104944;28;20037;-63
2022/07/02 02:15:08;;;;;;;6.60;5.60;;;;;;;10.32;96.78;101976.47;2104555;28;25476;-62
2022/07/02 02:16:10;;;;;;;5.65;5.07;;;;;;;10.30;96.70;101982.69;2096542;28;28873;-62
2022/07/02 02:17:12;;;;;;;7.80;6.72;;;;;;;10.31;97.17;101980.03;2096911;28;25280;-63
2022/07/02 02:18:17;;;;;;;8.88;6.13;;;;;;;10.34;96.94;101983.59;2096908;28;23214;-63
2022/07/02 02:19:21;;;;;;;6.88;5.97;;;;;;;10.29;96.70;101983.59;2096858;28;20053;-63
2022/07/02 02:20:23;;;;;;;6.00;5.38;;;;;;;10.31;96.59;101990.75;2096475;28;36264;-63
2022/07/02 02:21:27;;;;;;;6.72;5.53;;;;;;;10.32;97.00;101989.88;2097111;28;23401;-63
2022/07/02 02:22:29;;;;;;;8.40;5.57;;;;;;;10.30;96.53;101988.03;2097415;28;20865;-63
2022/07/02 02:23:31;;;;;;;6.55;5.50;;;;;;;10.29;96.55;101995.19;2097165;28;23476;-63
2022/07/02 02:24:33;;;;;;;6.95;6.25;;;;;;;10.31;96.66;101990.75;2096530;28;30103;-63
2022/07/02 02:25:34;;;;;;;6.63;5.95;;;;;;;10.28;96.31;101990.75;2096971;28;21934;-62
2022/07/02 02:26:37;;;;;;;7.32;6.22;;;;;;;10.29;96.70;101999.66;2097615;28;20059;-62
2022/07/02 02:27:39;;;;;;;6.60;5.70;;;;;;;10.30;96.42;101993.41;2096800;28;27186;-63
2022/07/02 02:28:46;;;;;;;7.50;6.80;;;;;;;10.29;96.61;102003.22;2096849;28;20041;-63
2022/07/02 02:29:48;;;;;;;7.03;6.32;;;;;;;10.27;96.63;101998.78;2095635;28;26200;-62
2022/07/02 02:30:50;;;;;;;9.02;6.70;;;;;;;10.26;96.80;101997.88;2096498;28;23252;-62
2022/07/02 02:31:52;;;;;;;8.70;7.20;;;;;;;10.25;96.99;102001.47;2097475;28;21078;-64
2022/07/02 02:32:56;;;;;;;8.25;7.07;;;;;;;10.28;96.97;102006.81;2097640;28;25471;-62
2022/07/02 02:33:58;;;;;;;8.77;6.15;;;;;;;10.22;96.71;102006.81;2096084;28;37048;-63
2022/07/02 02:35:01;;;;;;;7.10;5.70;;;;;;;10.21;96.47;101999.72;2095955;28;22763;-62
2022/07/02 02:36:03;;;;;;;6.43;5.82;;;;;;;10.20;96.61;102008.63;2096909;28;21399;-64
2022/07/02 02:37:05;;;;;;;7.18;6.10;;;;;;;10.20;96.59;102005.94;2096705;28;20750;-64
2022/07/02 02:38:06;;;;;;;6.78;6.18;;;;;;;10.17;96.96;102003.28;2095901;28;32558;-64
2022/07/02 02:39:11;;;;;;;8.30;5.68;;;;;;;10.19;96.94;102008.63;2097408;28;20048;-63
2022/07/02 02:40:12;;;;;;;8.85;6.35;;;;;;;10.23;96.87;102003.25;2095924;28;25568;-64
2022/07/02 02:41:15;;;;;;;7.20;6.50;;;;;;;10.19;97.09;101998.81;2095754;28;32577;-64
2022/07/02 02:42:16;;;;;;;7.95;6.50;;;;;;;10.17;96.51;102002.38;2097119;28;20045;-63
2022/07/02 02:43:18;;;;;;;6.63;6.13;;;;;;;10.20;96.62;102008.63;2096991;28;23558;-64
2022/07/02 02:44:21;;;;;;;6.82;6.22;;;;;;;10.22;96.92;102003.25;2096885;28;20512;-64
2022/07/02 02:45:25;;;;;;;11.52;6.32;;;;;;;10.23;97.09;101997.91;2096971;28;30512;-64
2022/07/02 02:46:27;;;;;;;6.60;5.78;;;;;;;10.22;96.51;102011.28;2096159;28;26166;-64
2022/07/02 02:47:29;;;;;;;7.18;6.10;;;;;;;10.23;97.13;102000.59;2097478;28;20033;-64
2022/07/02 02:48:34;;;;;;;6.65;6.05;;;;;;;10.26;96.81;102010.38;2096613;28;22696;-64
2022/07/02 02:49:36;;;;;;;8.00;6.80;;;;;;;10.27;97.06;102010.38;2095871;28;25604;-64
2022/07/02 02:50:38;;;;;;;7.30;6.57;;;;;;;10.25;96.56;102006.81;2096723;28;20048;-64
2022/07/02 02:51:40;;;;;;;7.07;6.10;;;;;;;10.26;96.62;102011.25;2096871;28;26675;-64
2022/07/02 02:52:44;;;;;;;6.50;5.90;;;;;;;10.25;96.56;102016.66;2096880;28;23377;-64
2022/07/02 02:53:46;;;;;;;7.43;6.60;;;;;;;10.26;96.53;102016.59;2097087;28;20041;-64
2022/07/02 02:54:51;;;;;;;7.05;6.28;;;;;;;10.28;97.31;102012.16;2096479;28;20151;-65
2022/07/02 02:55:53;;;;;;;5.50;5.00;;;;;;;10.25;96.40;102001.47;2097285;28;26043;-64
2022/07/02 02:56:54;;;;;;;7.13;6.43;;;;;;;10.29;97.52;102008.56;2096611;28;33768;-63
2022/07/02 02:57:56;;;;;;;7.00;6.13;;;;;;;10.30;97.51;102007.69;2097270;28;23381;-64
2022/07/02 02:58:58;;;;;;;7.03;6.13;;;;;;;10.28;96.78;102006.81;2097244;28;20041;-64
2022/07/02 03:00:00;;;;;;;7.30;5.75;;;;;;;10.30;97.01;102014.81;2096212;28;30543;-63
2022/07/02 03:01:01;;;;;;;9.00;6.07;;;;;;;10.26;96.88;102008.56;2096365;28;36584;-64
2022/07/02 03:02:04;;;;;;;9.35;6.05;;;;;;;10.28;96.76;102009.50;2097621;28;20323;-64
2022/07/02 03:03:06;;;;;;;8.70;6.63;;;;;;;10.27;96.75;102017.53;2096286;28;22358;-64
2022/07/02 03:04:07;;;;;;;9.25;7.03;;;;;;;10.24;96.65;102005.03;2096600;28;20936;-64
2022/07/02 03:05:09;;;;;;;7.03;5.75;;;;;;;10.24;97.35;102014.84;2096425;28;20575;-64
2022/07/02 03:06:11;;;;;;;6.55;5.75;;;;;;;10.23;96.86;102013.06;2095794;28;36652;-64
2022/07/02 03:07:15;;;;;;;6.78;6.07;;;;;;;10.25;97.16;102013.97;2096609;28;20042;-64
2022/07/02 03:08:17;;;;;;;8.88;6.57;;;;;;;10.28;97.92;102009.50;2096255;28;39108;-65
2022/07/02 03:09:18;;;;;;;8.35;6.22;;;;;;;10.29;97.30;102013.06;2096865;28;24781;-64
2022/07/02 03:10:20;;;;;;;7.50;6.82;;;;;;;10.31;96.83;102022.00;2096022;28;21242;-64
2022/07/02 03:11:24;;;;;;;7.07;6.38;;;;;;;10.28;97.37;102022.88;2096469;28;28801;-64
2022/07/02 03:12:26;;;;;;;10.13;7.00;;;;;;;10.31;97.23;102017.53;2096064;28;20029;-64
2022/07/02 03:13:31;;;;;;;6.90;6.30;;;;;;;10.35;96.98;102017.50;2096265;28;25634;-64
2022/07/02 03:14:33;;;;;;;6.72;5.93;;;;;;;10.32;96.77;102015.75;2096926;28;24215;-64
2022/07/02 03:15:35;;;;;;;9.25;6.45;;;;;;;10.34;96.67;102019.31;2095640;28;27515;-64
2022/07/02 03:16:37;;;;;;;7.68;6.63;;;;;;;10.31;96.49;102033.56;2097030;28;22103;-64
2022/07/02 03:17:41;;;;;;;9.05;6.50;;;;;;;10.35;96.89;102022.88;2096590;28;22137;-64
2022/07/02 03:18:46;;;;;;;8.00;6.30;;;;;;;10.34;97.02;102029.09;2096363;28;21728;-64
2022/07/02 03:19:48;;;;;;;8.02;6.43;;;;;;;10.37;97.24;102037.13;2096324;28;34871;-64
2022/07/02 03:20:50;;;;;;;9.23;5.93;;;;;;;10.36;97.19;102038.06;2096390;28;20037;-64
2022/07/02 03:21:51;;;;;;;8.35;7.25;;;;;;;10.37;96.81;102038.00;2096066;28;22668;-64
2022/07/02 03:22:55;;;;;;;7.40;6.60;;;;;;;10.39;96.91;102025.53;2096537;28;22588;-64
2022/07/02 03:23:57;;;;;;;7.15;6.13;;;;;;;10.40;96.74;102031.78;2096531;28;20913;-64
2022/07/02 03:24:59;;;;;;;6.90;6.20;;;;;;;10.44;96.82;102028.19;2097220;28;20118;-65
2022/07/02 03:26:01;;;;;;;10.45;5.97;;;;;;;10.45;96.65;102027.28;2096431;28;20048;-64
2022/07/02 03:27:03;;;;;;;10.85;7.18;;;;;;;10.44;96.31;102025.50;2096697;28;24466;-63
2022/07/02 03:28:06;;;;;;;8.15;6.25;;;;;;;10.45;96.72;102029.97;2096076;28;20037;-64
2022/07/02 03:29:08;;;;;;;9.38;7.00;;;;;;;10.48;96.94;102035.28;2096649;28;20151;-63
2022/07/02 03:30:10;;;;;;;10.65;6.95;;;;;;;10.52;97.11;102037.06;2096808;28;23721;-64
2022/07/02 03:31:12;;;;;;;6.82;6.05;;;;;;;10.56;97.05;102033.47;2096656;28;20033;-64
2022/07/02 03:32:14;;;;;;;8.13;6.93;;;;;;;10.67;97.00;102031.63;2096195;28;20829;-64
2022/07/02 03:33:16;;;;;;;7.03;6.32;;;;;;;10.73;96.53;102035.16;2096400;28;30363;-64
2022/07/02 03:34:17;;;;;;;9.27;7.22;;;;;;;10.78;96.53;102039.59;2096727;28;20917;-64
2022/07/02 03:35:20;;;;;;;9.93;6.95;;;;;;;10.85;95.92;102032.41;2095931;28;33622;-64
2022/07/02 03:36:22;;;;;;;7.07;6.47;;;;;;;10.86;95.49;102036.88;2095775;28;21967;-64
2022/07/02 03:37:28;;;;;;;6.93;6.10;;;;;;;10.89;95.56;102034.16;2097144;28;20041;-64
2022/07/02 03:38:30;;;;;;;7.38;5.47;;;;;;;10.92;95.06;102028.78;2095950;28;27315;-64
2022/07/02 03:39:31;;;;;;;8.80;5.57;;;;;;;10.95;94.98;102035.94;2096188;28;24044;-64
2022/07/02 03:40:36;;;;;;;9.07;6.20;;;;;;;11.00;94.51;102034.09;2096570;28;20045;-64
2022/07/02 03:41:40;;;;;;;6.85;6.25;;;;;;;11.05;94.26;102030.50;2088147;28;26844;-64
2022/07/02 03:42:44;;;;;;;8.05;5.22;;;;;;;11.07;94.04;102026.00;2087941;28;24952;-64
2022/07/02 03:43:46;;;;;;;6.38;5.78;;;;;;;11.05;93.63;102035.84;2087225;28;37400;-64
2022/07/02 03:44:47;;;;;;;6.93;6.22;;;;;;;11.08;93.57;102033.13;2087416;28;20879;-64
2022/07/02 03:45:49;;;;;;;7.45;5.43;;;;;;;11.08;93.19;102030.44;2088520;28;23352;-65
2022/07/02 03:46:51;;;;;;;7.13;5.43;;;;;;;11.11;93.56;102031.31;2092752;28;35819;-64
2022/07/02 03:47:53;;;;;;;5.30;4.78;;;;;;;11.13;92.95;102035.78;2096548;28;21028;-64
2022/07/02 03:48:56;;;;;;;7.90;5.47;;;;;;;11.15;92.98;102041.16;2096888;28;20746;-64
2022/07/02 03:49:58;;;;;;;6.63;5.22;;;;;;;11.18;92.97;102035.75;2096316;28;34318;-64
2022/07/02 03:51:00;;;;;;;5.63;5.05;;;;;;;11.21;92.91;102033.03;2096230;28;23649;-64
2022/07/02 03:52:02;;;;;;;7.63;5.32;;;;;;;11.22;92.82;102041.06;2096071;28;20033;-64
2022/07/02 03:53:08;;;;;;;6.38;4.97;;;;;;;11.25;92.98;102035.69;2096609;28;23686;-65
2022/07/02 03:54:10;;;;;;;8.57;5.20;;;;;;;11.27;92.65;102039.25;2095861;28;36764;-64
2022/07/02 03:55:12;;;;;;;6.97;5.05;;;;;;;11.28;92.72;102042.81;2095101;28;21444;-64
2022/07/02 03:56:16;;;;;;;5.70;4.82;;;;;;;11.32;92.74;102038.31;2097015;28;21524;-64
2022/07/02 03:57:20;;;;;;;5.38;4.47;;;;;;;11.35;92.45;102031.13;2095941;28;25259;-64
2022/07/02 03:58:24;;;;;;;5.55;4.57;;;;;;;11.37;92.52;102041.84;2096050;28;24450;-64
2022/07/02 03:59:26;;;;;;;5.95;5.35;;;;;;;11.43;92.47;102040.00;2096412;28;27299;-64
2022/07/02 04:00:28;;;;;;;5.55;4.35;;;;;;;11.51;92.20;102031.91;2096790;28;25804;-64
2022/07/02 04:01:32;;;;;;;6.25;5.00;;;;;;;11.60;91.50;102028.25;2095220;28;20044;-65
2022/07/02 04:02:34;;;;;;;8.27;4.53;;;;;;;11.71;91.50;102039.75;2096781;28;25319;-64
2022/07/02 04:03:39;;;;;;;7.40;4.70;;;;;;;11.80;90.48;102031.59;2096381;28;21523;-64
2022/07/02 04:04:43;;;;;;;5.75;4.45;;;;;;;11.94;90.49;102035.97;2096347;28;26284;-64
2022/07/02 04:05:45;;;;;;;4.65;4.05;;;;;;;12.17;89.54;102033.91;2096378;28;22865;-64
2022/07/02 04:06:51;;;;;;;4.82;4.05;;;;;;;12.48;88.61;102030.84;2096438;28;22723;-64
2022/07/02 04:07:52;;;;;;;5.32;3.65;;;;;;;12.79;86.54;102035.78;2095811;28;20839;-64
2022/07/02 04:08:54;;;;;;;5.32;3.72;;;;;;;13.04;85.42;102038.09;2096705;28;20528;-64
2022/07/02 04:09:56;;;;;;;4.63;3.58;;;;;;;13.42;84.17;102039.31;2096191;28;29431;-64
2022/07/02 04:10:58;;;;;;;5.88;3.40;;;;;;;13.76;82.57;102039.59;2096851;28;22146;-64
2022/07/02 04:12:04;;;;;;;6.30;3.25;;;;;;;14.21;80.20;102038.72;2095757;28;40206;-64
2022/07/02 04:13:07;;;;;;;4.38;2.60;;;;;;;14.51;78.29;102038.06;2096992;28;20041;-64
2022/07/02 04:14:09;;;;;;;3.25;2.88;;;;;;;15.01;76.34;102037.88;2095469;28;24841;-65
2022/07/02 04:15:11;;;;;;;4.60;2.35;;;;;;;15.42;75.15;102040.50;2096419;28;35610;-64
2022/07/02 04:16:13;;;;;;;3.55;2.25;;;;;;;15.87;73.04;102034.81;2096510;28;25745;-64
2022/07/02 04:17:15;;;;;;;2.92;2.33;;;;;;;16.17;71.57;102041.19;2096640;28;21106;-64
2022/07/02 04:18:22;;;;;;;5.43;2.30;;;;;;;16.45;69.91;102039.50;2096461;28;20901;-64
2022/07/02 04:19:24;;;;;;;5.13;2.03;;;;;;;17.00;68.33;102043.22;2095943;28;26875;-64
2022/07/02 04:20:26;;;;;;;3.90;1.85;;;;;;;17.29;65.60;102039.56;2095589;28;25306;-64
2022/07/02 04:21:27;;;;;;;3.55;1.70;;;;;;;17.66;65.02;102045.56;2096775;28;20033;-64
2022/07/02 04:22:31;;;;;;;2.85;1.65;;;;;;;17.97;64.23;102028.22;2096130;28;32984;-64
2022/07/02 04:23:33;;;;;;;3.15;1.42;;;;;;;18.18;63.52;102032.84;2096477;28;32500;-64
2022/07/02 04:24:35;;;;;;;2.45;1.58;;;;;;;18.18;61.73;102037.38;2097103;28;20041;-65
2022/07/02 04:25:39;;;;;;;2.00;1.70;;;;;;;18.13;62.25;102037.56;2096387;28;24909;-64
2022/07/02 04:26:41;;;;;;;5.22;1.77;;;;;;;18.17;61.03;102041.91;2096288;28;21171;-64
2022/07/02 04:27:45;;;;;;;2.10;1.25;;;;;;;18.76;60.73;102042.41;2088212;28;25221;-64
2022/07/02 04:28:47;;;;;;;3.42;1.60;;;;;;;18.76;59.76;102040.56;2087232;28;20309;-64
2022/07/02 04:29:49;;;;;;;6.22;1.30;;;;;;;19.44;59.86;102035.09;2087415;28;27743;-64
2022/07/02 04:30:53;;;;;;;3.03;1.60;;;;;;;19.49;58.41;102037.59;2088185;28;20044;-64
2022/07/02 04:31:57;;;;;;;1.73;1.10;;;;;;;19.67;57.31;102042.28;2087908;28;28969;-64
2022/07/02 04:33:00;;;;;;;3.92;1.27;;;;;;;20.27;55.23;102036.88;2096437;28;20088;-64
2022/07/02 04:34:01;;;;;;;5.15;1.40;;;;;;;20.28;53.15;102037.75;2096328;28;22233;-64
2022/07/02 04:35:04;;;;;;;4.65;1.50;;;;;;;20.60;54.24;102029.00;2096722;28;20115;-64
2022/07/02 04:36:08;;;;;;;3.70;1.08;;;;;;;21.05;52.83;102042.28;2096637;28;20146;-64
2022/07/02 04:37:11;;;;;;;5.22;1.58;;;;;;;21.13;52.90;102040.97;2096092;28;20041;-64
2022/07/02 04:38:16;;;;;;;2.40;1.27;;;;;;;21.14;50.86;102039.13;2095921;28;34116;-64
2022/07/02 04:39:18;;;;;;;2.10;1.30;;;;;;;20.93;52.39;102046.53;2095801;28;38390;-64
2022/07/02 04:40:20;;;;;;;4.20;1.27;;;;;;;21.38;49.22;102044.31;2096791;28;20971;-63
2022/07/02 04:41:22;;;;;;;3.50;1.30;;;;;;;21.09;51.77;102038.47;2095796;28;24236;-58
2022/07/02 04:42:23;;;;;;;4.22;1.17;;;;;;;21.45;48.77;102038.50;2095845;28;21244;-71
2022/07/02 04:43:27;;;;;;;3.88;1.30;;;;;;;21.59;49.50;102039.59;2096101;28;20057;-63
2022/07/02 04:44:32;;;;;;;3.60;1.33;;;;;;;21.60;51.45;102036.81;2096544;28;23481;-57
2022/07/02 04:45:38;;;;;;;2.83;1.20;;;;;;;21.77;50.50;102044.13;2103827;28;20183;-64
2022/07/02 04:46:40;;;;;;;4.18;1.10;;;;;;;21.64;48.86;102046.59;2104861;28;20043;-61
2022/07/02 04:47:42;;;;;;;4.07;1.50;;;;;;;21.98;48.27;102030.28;2095071;28;20041;-64
2022/07/02 04:48:44;;;;;;;2.13;1.02;;;;;;;22.39;47.19;102033.53;2096638;28;23372;-65
2022/07/02 04:49:46;;;;;;;5.97;1.30;;;;;;;22.16;48.83;102039.31;2095188;28;26925;-62
2022/07/02 04:50:48;;;;;;;2.30;1.10;;;;;;;22.35;48.56;102041.97;2096183;28;21037;-62
2022/07/02 04:51:50;;;;;;;4.43;1.25;;;;;;;22.42;47.52;102040.69;2096046;28;28309;-63
2022/07/02 04:52:52;;;;;;;2.38;1.15;;;;;;;22.92;46.31;102036.06;2095895;28;37327;-59
2022/07/02 04:53:55;;;;;;;3.88;1.35;;;;;;;22.62;48.24;102036.81;2095609;28;20574;-65
2022/07/02 04:54:57;;;;;;;3.17;0.80;;;;;;;22.88;48.44;102035.34;2096349;28;28385;-60
2022/07/02 04:55:59;;;;;;;4.25;1.30;;;;;;;23.00;46.44;102039.22;2096386;28;25421;-60